sensor_id;sensor_type;location;lat;lon;timestamp;pressure;altitude;pressure_sealevel;temperature;humidity
66273;BME280;58450;52.150;4.466;2023-03-26T00:01:31;100643.44;;;8.29;100.00
66273;BME280;58450;52.150;4.466;2023-03-26T00:04:04;100656.34;;;8.34;100.00
66273;BME280;58450;52.150;4.466;2023-03-26T00:06:34;100655.84;;;8.30;100.00
66273;BME280;58450;52.150;4.466;2023-03-26T00:09:05;100650.34;;;8.23;100.00
66273;BME280;58450;52.150;4.466;2023-03-26T00:11:34;100651.00;;;8.25;100.00
66273;BME280;58450;52.150;4.466;2023-03-26T00:14:02;100645.66;;;8.25;100.00
66273;BME280;58450;52.150;4.466;2023-03-26T00:16:31;100649.66;;;8.30;100.00
66273;BME280;58450;52.150;4.466;2023-03-26T00:18:59;100646.63;;;8.33;100.00
66273;BME280;58450;52.150;4.466;2023-03-26T00:21:30;100641.25;;;8.33;100.00
66273;BME280;58450;52.150;4.466;2023-03-26T00:23:59;100644.59;;;8.35;100.00
66273;BME280;58450;52.150;4.466;2023-03-26T00:26:30;100640.34;;;8.49;100.00
66273;BME280;58450;52.150;4.466;2023-03-26T00:28:58;100632.88;;;8.59;100.00
66273;BME280;58450;52.150;4.466;2023-03-26T00:31:26;100623.28;;;8.65;100.00
66273;BME280;58450;52.150;4.466;2023-03-26T00:33:54;100619.41;;;8.67;100.00
66273;BME280;58450;52.150;4.466;2023-03-26T00:36:23;100618.19;;;8.70;100.00
66273;BME280;58450;52.150;4.466;2023-03-26T00:38:53;100616.00;;;8.74;100.00
66273;BME280;58450;52.150;4.466;2023-03-26T00:41:23;100620.16;;;8.76;100.00
66273;BME280;58450;52.150;4.466;2023-03-26T00:43:57;100613.13;;;8.75;100.00
66273;BME280;58450;52.150;4.466;2023-03-26T00:46:28;100613.34;;;8.74;100.00
66273;BME280;58450;52.150;4.466;2023-03-26T00:48:58;100615.72;;;8.68;100.00
66273;BME280;58450;52.150;4.466;2023-03-26T00:51:29;100606.72;;;8.61;100.00
66273;BME280;58450;52.150;4.466;2023-03-26T00:53:59;100600.63;;;8.67;100.00
66273;BME280;58450;52.150;4.466;2023-03-26T00:56:27;100599.63;;;8.68;100.00
66273;BME280;58450;52.150;4.466;2023-03-26T00:58:54;100593.03;;;8.71;100.00
66273;BME280;58450;52.150;4.466;2023-03-26T01:01:23;100593.03;;;8.71;100.00
66273;BME280;58450;52.150;4.466;2023-03-26T01:03:53;100586.22;;;8.68;100.00
66273;BME280;58450;52.150;4.466;2023-03-26T01:06:27;100581.31;;;8.72;100.00
66273;BME280;58450;52.150;4.466;2023-03-26T01:09:05;100579.63;;;8.71;100.00
66273;BME280;58450;52.150;4.466;2023-03-26T01:11:39;100580.72;;;8.62;100.00
66273;BME280;58450;52.150;4.466;2023-03-26T01:14:10;100563.16;;;8.59;100.00
66273;BME280;58450;52.150;4.466;2023-03-26T01:16:42;100566.59;;;8.45;100.00
66273;BME280;58450;52.150;4.466;2023-03-26T01:19:14;100567.75;;;8.42;100.00
66273;BME280;58450;52.150;4.466;2023-03-26T01:21:47;100557.59;;;8.61;100.00
66273;BME280;58450;52.150;4.466;2023-03-26T01:24:16;100554.75;;;8.62;100.00
66273;BME280;58450;52.150;4.466;2023-03-26T01:27:01;100551.41;;;8.60;100.00
66273;BME280;58450;52.150;4.466;2023-03-26T01:29:41;100546.28;;;8.50;100.00
66273;BME280;58450;52.150;4.466;2023-03-26T01:32:20;100555.19;;;8.42;100.00
66273;BME280;58450;52.150;4.466;2023-03-26T01:35:10;100554.75;;;8.39;100.00
66273;BME280;58450;52.150;4.466;2023-03-26T01:37:52;100557.47;;;8.31;100.00
66273;BME280;58450;52.150;4.466;2023-03-26T01:40:40;100543.28;;;8.22;100.00
66273;BME280;58450;52.150;4.466;2023-03-26T01:43:18;100545.31;;;8.20;100.00
66273;BME280;58450;52.150;4.466;2023-03-26T01:45:52;100535.19;;;8.07;100.00
66273;BME280;58450;52.150;4.466;2023-03-26T01:48:28;100536.81;;;7.93;100.00
66273;BME280;58450;52.150;4.466;2023-03-26T01:50:57;100524.19;;;8.02;100.00
66273;BME280;58450;52.150;4.466;2023-03-26T01:53:25;100517.81;;;8.03;100.00
66273;BME280;58450;52.150;4.466;2023-03-26T01:56:00;100521.13;;;8.05;100.00
66273;BME280;58450;52.150;4.466;2023-03-26T01:58:41;100515.47;;;7.99;100.00
66273;BME280;58450;52.150;4.466;2023-03-26T02:01:26;100517.84;;;7.94;100.00
66273;BME280;58450;52.150;4.466;2023-03-26T02:04:05;100506.50;;;7.92;100.00
66273;BME280;58450;52.150;4.466;2023-03-26T02:06:47;100508.03;;;7.87;100.00
66273;BME280;58450;52.150;4.466;2023-03-26T02:09:26;100506.88;;;7.81;100.00
66273;BME280;58450;52.150;4.466;2023-03-26T02:11:58;100509.56;;;7.81;100.00
66273;BME280;58450;52.150;4.466;2023-03-26T02:14:29;100502.53;;;7.80;100.00
66273;BME280;58450;52.150;4.466;2023-03-26T02:16:58;100499.03;;;7.79;100.00
66273;BME280;58450;52.150;4.466;2023-03-26T02:19:25;100501.88;;;7.78;100.00
66273;BME280;58450;52.150;4.466;2023-03-26T02:21:53;100498.19;;;7.79;100.00
66273;BME280;58450;52.150;4.466;2023-03-26T02:24:24;100499.56;;;7.75;100.00
66273;BME280;58450;52.150;4.466;2023-03-26T02:26:52;100499.41;;;7.76;100.00
66273;BME280;58450;52.150;4.466;2023-03-26T02:29:22;100500.22;;;7.77;100.00
66273;BME280;58450;52.150;4.466;2023-03-26T02:31:51;100495.88;;;7.76;100.00
66273;BME280;58450;52.150;4.466;2023-03-26T02:34:19;100496.53;;;7.78;100.00
66273;BME280;58450;52.150;4.466;2023-03-26T02:36:46;100491.66;;;7.81;100.00
66273;BME280;58450;52.150;4.466;2023-03-26T02:39:14;100486.13;;;7.83;100.00
66273;BME280;58450;52.150;4.466;2023-03-26T02:41:41;100484.09;;;7.85;100.00
66273;BME280;58450;52.150;4.466;2023-03-26T02:44:09;100484.75;;;7.87;100.00
66273;BME280;58450;52.150;4.466;2023-03-26T02:46:38;100480.69;;;7.91;100.00
66273;BME280;58450;52.150;4.466;2023-03-26T02:49:06;100466.94;;;7.94;100.00
66273;BME280;58450;52.150;4.466;2023-03-26T02:51:34;100473.72;;;8.05;100.00
66273;BME280;58450;52.150;4.466;2023-03-26T02:54:03;100472.66;;;8.14;100.00
66273;BME280;58450;52.150;4.466;2023-03-26T02:56:32;100459.16;;;8.08;100.00
66273;BME280;58450;52.150;4.466;2023-03-26T02:58:59;100460.22;;;7.98;100.00
66273;BME280;58450;52.150;4.466;2023-03-26T03:01:27;100465.13;;;7.95;100.00
66273;BME280;58450;52.150;4.466;2023-03-26T03:03:57;100464.06;;;7.96;100.00
66273;BME280;58450;52.150;4.466;2023-03-26T03:06:26;100462.91;;;7.98;100.00
66273;BME280;58450;52.150;4.466;2023-03-26T03:08:55;100449.81;;;8.04;100.00
66273;BME280;58450;52.150;4.466;2023-03-26T03:11:23;100453.13;;;8.06;100.00
66273;BME280;58450;52.150;4.466;2023-03-26T03:13:51;100451.47;;;8.05;100.00
66273;BME280;58450;52.150;4.466;2023-03-26T03:16:19;100451.28;;;8.06;100.00
66273;BME280;58450;52.150;4.466;2023-03-26T03:18:47;100462.66;;;8.08;100.00
66273;BME280;58450;52.150;4.466;2023-03-26T03:21:20;100459.44;;;8.13;100.00
66273;BME280;58450;52.150;4.466;2023-03-26T03:23:49;100444.00;;;8.15;100.00
66273;BME280;58450;52.150;4.466;2023-03-26T03:26:20;100449.00;;;8.18;100.00
66273;BME280;58450;52.150;4.466;2023-03-26T03:28:53;100445.75;;;8.08;100.00
66273;BME280;58450;52.150;4.466;2023-03-26T03:31:21;100449.91;;;8.10;100.00
66273;BME280;58450;52.150;4.466;2023-03-26T03:33:50;100436.63;;;8.17;100.00
66273;BME280;58450;52.150;4.466;2023-03-26T03:36:20;100433.94;;;8.17;100.00
66273;BME280;58450;52.150;4.466;2023-03-26T03:38:49;100437.72;;;8.23;100.00
66273;BME280;58450;52.150;4.466;2023-03-26T03:41:17;100430.41;;;8.17;100.00
66273;BME280;58450;52.150;4.466;2023-03-26T03:43:44;100422.50;;;8.23;100.00
66273;BME280;58450;52.150;4.466;2023-03-26T03:46:12;100416.78;;;8.26;100.00
66273;BME280;58450;52.150;4.466;2023-03-26T03:48:40;100415.38;;;8.31;100.00
66273;BME280;58450;52.150;4.466;2023-03-26T03:51:13;100420.84;;;8.37;100.00
66273;BME280;58450;52.150;4.466;2023-03-26T03:53:41;100411.69;;;8.47;100.00
66273;BME280;58450;52.150;4.466;2023-03-26T03:56:10;100402.63;;;8.48;100.00
66273;BME280;58450;52.150;4.466;2023-03-26T03:58:39;100401.94;;;8.54;100.00
66273;BME280;58450;52.150;4.466;2023-03-26T04:01:07;100399.25;;;8.54;100.00
66273;BME280;58450;52.150;4.466;2023-03-26T04:03:36;100403.59;;;8.55;100.00
66273;BME280;58450;52.150;4.466;2023-03-26T04:06:04;100395.63;;;8.62;100.00
66273;BME280;58450;52.150;4.466;2023-03-26T04:08:32;100393.44;;;8.65;100.00
66273;BME280;58450;52.150;4.466;2023-03-26T04:11:02;100393.44;;;8.65;100.00
66273;BME280;58450;52.150;4.466;2023-03-26T04:13:29;100387.88;;;8.67;100.00
66273;BME280;58450;52.150;4.466;2023-03-26T04:15:57;100382.59;;;8.74;100.00
66273;BME280;58450;52.150;4.466;2023-03-26T04:18:25;100383.91;;;8.78;100.00
66273;BME280;58450;52.150;4.466;2023-03-26T04:20:54;100370.28;;;8.79;100.00
66273;BME280;58450;52.150;4.466;2023-03-26T04:23:22;100368.81;;;8.77;100.00
66273;BME280;58450;52.150;4.466;2023-03-26T04:25:52;100370.91;;;8.81;100.00
66273;BME280;58450;52.150;4.466;2023-03-26T04:28:26;100370.75;;;8.83;100.00
66273;BME280;58450;52.150;4.466;2023-03-26T04:30:58;100357.34;;;8.83;100.00
66273;BME280;58450;52.150;4.466;2023-03-26T04:33:30;100352.13;;;8.81;100.00
66273;BME280;58450;52.150;4.466;2023-03-26T04:36:00;100341.47;;;8.88;100.00
66273;BME280;58450;52.150;4.466;2023-03-26T04:38:29;100343.72;;;8.84;100.00
66273;BME280;58450;52.150;4.466;2023-03-26T04:41:00;100339.63;;;8.89;100.00
66273;BME280;58450;52.150;4.466;2023-03-26T04:43:29;100337.44;;;8.77;100.00
66273;BME280;58450;52.150;4.466;2023-03-26T04:46:00;100330.72;;;8.66;100.00
66273;BME280;58450;52.150;4.466;2023-03-26T04:48:29;100328.94;;;8.58;100.00
66273;BME280;58450;52.150;4.466;2023-03-26T04:50:57;100328.13;;;8.58;100.00
66273;BME280;58450;52.150;4.466;2023-03-26T04:53:25;100324.81;;;8.56;100.00
66273;BME280;58450;52.150;4.466;2023-03-26T04:55:56;100313.50;;;8.61;100.00
66273;BME280;58450;52.150;4.466;2023-03-26T04:58:30;100317.41;;;8.58;100.00
66273;BME280;58450;52.150;4.466;2023-03-26T05:00:59;100318.88;;;8.61;100.00
66273;BME280;58450;52.150;4.466;2023-03-26T05:03:28;100305.66;;;8.59;100.00
66273;BME280;58450;52.150;4.466;2023-03-26T05:05:57;100306.56;;;8.51;100.00
66273;BME280;58450;52.150;4.466;2023-03-26T05:08:26;100308.50;;;8.57;100.00
66273;BME280;58450;52.150;4.466;2023-03-26T05:10:55;100298.91;;;8.63;100.00
66273;BME280;58450;52.150;4.466;2023-03-26T05:13:23;100299.97;;;8.69;100.00
66273;BME280;58450;52.150;4.466;2023-03-26T05:15:51;100296.66;;;8.67;100.00
66273;BME280;58450;52.150;4.466;2023-03-26T05:18:20;100291.28;;;8.67;100.00
66273;BME280;58450;52.150;4.466;2023-03-26T05:20:48;100291.13;;;8.68;100.00
66273;BME280;58450;52.150;4.466;2023-03-26T05:23:15;100286.56;;;8.69;100.00
66273;BME280;58450;52.150;4.466;2023-03-26T05:25:43;100284.72;;;8.69;100.00
66273;BME280;58450;52.150;4.466;2023-03-26T05:28:12;100280.38;;;8.68;100.00
66273;BME280;58450;52.150;4.466;2023-03-26T05:30:41;100278.91;;;8.66;100.00
66273;BME280;58450;52.150;4.466;2023-03-26T05:33:11;100268.00;;;8.67;100.00
66273;BME280;58450;52.150;4.466;2023-03-26T05:35:38;100268.38;;;8.64;100.00
66273;BME280;58450;52.150;4.466;2023-03-26T05:38:06;100264.84;;;8.64;100.00
66273;BME280;58450;52.150;4.466;2023-03-26T05:40:34;100263.00;;;8.64;100.00
66273;BME280;58450;52.150;4.466;2023-03-26T05:43:01;100255.78;;;8.65;100.00
66273;BME280;58450;52.150;4.466;2023-03-26T05:45:29;100255.13;;;8.63;100.00
66273;BME280;58450;52.150;4.466;2023-03-26T05:47:57;100255.97;;;8.63;100.00
66273;BME280;58450;52.150;4.466;2023-03-26T05:50:26;100255.78;;;8.65;100.00
66273;BME280;58450;52.150;4.466;2023-03-26T05:52:53;100254.75;;;8.66;100.00
66273;BME280;58450;52.150;4.466;2023-03-26T05:55:21;100252.72;;;8.68;100.00
66273;BME280;58450;52.150;4.466;2023-03-26T05:57:48;100260.59;;;8.69;100.00
66273;BME280;58450;52.150;4.466;2023-03-26T06:00:16;100250.31;;;8.73;100.00
66273;BME280;58450;52.150;4.466;2023-03-26T06:02:44;100247.06;;;8.78;100.00
66273;BME280;58450;52.150;4.466;2023-03-26T06:05:12;100248.25;;;8.75;100.00
66273;BME280;58450;52.150;4.466;2023-03-26T06:07:41;100248.91;;;8.77;100.00
66273;BME280;58450;52.150;4.466;2023-03-26T06:10:09;100250.78;;;8.77;100.00
66273;BME280;58450;52.150;4.466;2023-03-26T06:12:37;100250.38;;;8.80;100.00
66273;BME280;58450;52.150;4.466;2023-03-26T06:15:05;100248.25;;;8.75;100.00
66273;BME280;58450;52.150;4.466;2023-03-26T06:17:34;100241.97;;;8.83;100.00
66273;BME280;58450;52.150;4.466;2023-03-26T06:20:02;100235.81;;;8.89;100.00
66273;BME280;58450;52.150;4.466;2023-03-26T06:22:32;100231.47;;;8.88;100.00
66273;BME280;58450;52.150;4.466;2023-03-26T06:25:00;100234.47;;;9.00;100.00
66273;BME280;58450;52.150;4.466;2023-03-26T06:27:28;100229.13;;;9.00;100.00
66273;BME280;58450;52.150;4.466;2023-03-26T06:29:55;100229.13;;;9.00;100.00
66273;BME280;58450;52.150;4.466;2023-03-26T06:32:23;100222.09;;;8.99;100.00
66273;BME280;58450;52.150;4.466;2023-03-26T06:34:50;100230.13;;;8.99;100.00
66273;BME280;58450;52.150;4.466;2023-03-26T06:37:18;100236.56;;;9.05;100.00
66273;BME280;58450;52.150;4.466;2023-03-26T06:39:45;100232.69;;;9.07;100.00
66273;BME280;58450;52.150;4.466;2023-03-26T06:42:14;100226.56;;;9.13;100.00
66273;BME280;58450;52.150;4.466;2023-03-26T06:44:42;100232.94;;;9.12;100.00
66273;BME280;58450;52.150;4.466;2023-03-26T06:47:09;100237.94;;;9.15;100.00
66273;BME280;58450;52.150;4.466;2023-03-26T06:49:37;100233.38;;;9.16;100.00
66273;BME280;58450;52.150;4.466;2023-03-26T06:52:04;100238.97;;;9.14;100.00
66273;BME280;58450;52.150;4.466;2023-03-26T06:54:32;100232.59;;;9.22;100.00
66273;BME280;58450;52.150;4.466;2023-03-26T06:56:59;100245.41;;;9.20;100.00
66273;BME280;58450;52.150;4.466;2023-03-26T06:59:28;100241.31;;;9.24;100.00
66273;BME280;58450;52.150;4.466;2023-03-26T07:01:56;100246.50;;;9.26;100.00
66273;BME280;58450;52.150;4.466;2023-03-26T07:04:23;100245.25;;;9.28;100.00
66273;BME280;58450;52.150;4.466;2023-03-26T07:06:51;100248.75;;;9.29;100.00
66273;BME280;58450;52.150;4.466;2023-03-26T07:09:19;100242.38;;;9.30;100.00
66273;BME280;58450;52.150;4.466;2023-03-26T07:11:46;100255.38;;;9.26;100.00
66273;BME280;58450;52.150;4.466;2023-03-26T07:14:14;100239.03;;;9.28;100.00
66273;BME280;58450;52.150;4.466;2023-03-26T07:16:43;100232.66;;;9.29;100.00
66273;BME280;58450;52.150;4.466;2023-03-26T07:19:10;100234.72;;;9.27;100.00
66273;BME280;58450;52.150;4.466;2023-03-26T07:21:38;100237.41;;;9.27;100.00
66273;BME280;58450;52.150;4.466;2023-03-26T07:24:09;100232.03;;;9.27;100.00
66273;BME280;58450;52.150;4.466;2023-03-26T07:26:47;100235.13;;;9.24;100.00
66273;BME280;58450;52.150;4.466;2023-03-26T07:29:26;100244.41;;;9.28;100.00
66273;BME280;58450;52.150;4.466;2023-03-26T07:32:08;100240.09;;;9.27;100.00
66273;BME280;58450;52.150;4.466;2023-03-26T07:34:47;100240.28;;;9.25;100.00
66273;BME280;58450;52.150;4.466;2023-03-26T07:37:27;100235.75;;;9.26;100.00
66273;BME280;58450;52.150;4.466;2023-03-26T07:40:05;100242.38;;;9.30;100.00
66273;BME280;58450;52.150;4.466;2023-03-26T07:42:52;100242.19;;;9.31;100.00
66273;BME280;58450;52.150;4.466;2023-03-26T07:45:32;100232.91;;;9.34;100.00
66273;BME280;58450;52.150;4.466;2023-03-26T07:48:12;100234.19;;;9.38;100.00
66273;BME280;58450;52.150;4.466;2023-03-26T07:50:43;100234.56;;;9.35;100.00
66273;BME280;58450;52.150;4.466;2023-03-26T07:53:12;100233.53;;;9.36;100.00
66273;BME280;58450;52.150;4.466;2023-03-26T07:55:48;100226.38;;;9.43;100.00
66273;BME280;58450;52.150;4.466;2023-03-26T07:58:35;100238.13;;;9.42;100.00
66273;BME280;58450;52.150;4.466;2023-03-26T08:01:14;100224.75;;;9.21;100.00
66273;BME280;58450;52.150;4.466;2023-03-26T08:06:59;100234.91;;;9.25;100.00
66273;BME280;58450;52.150;4.466;2023-03-26T08:09:34;100226.81;;;9.19;100.00
66273;BME280;58450;52.150;4.466;2023-03-26T08:12:17;100217.72;;;9.20;100.00
66273;BME280;58450;52.150;4.466;2023-03-26T08:14:55;100218.75;;;8.97;100.00
66273;BME280;58450;52.150;4.466;2023-03-26T08:17:36;100224.38;;;9.02;100.00
66273;BME280;58450;52.150;4.466;2023-03-26T08:20:21;100225.16;;;9.18;100.00
66273;BME280;58450;52.150;4.466;2023-03-26T08:23:02;100228.00;;;9.16;100.00
66273;BME280;58450;52.150;4.466;2023-03-26T08:25:41;100221.81;;;9.15;100.00
66273;BME280;58450;52.150;4.466;2023-03-26T08:28:24;100225.78;;;9.20;100.00
66273;BME280;58450;52.150;4.466;2023-03-26T08:31:03;100225.53;;;9.14;100.00
66273;BME280;58450;52.150;4.466;2023-03-26T08:33:31;100229.25;;;9.13;100.00
66273;BME280;58450;52.150;4.466;2023-03-26T08:36:00;100226.03;;;9.03;100.00
66273;BME280;58450;52.150;4.466;2023-03-26T08:38:28;100223.38;;;9.03;100.00
66273;BME280;58450;52.150;4.466;2023-03-26T08:51:27;100245.25;;;9.50;100.00
66273;BME280;58450;52.150;4.466;2023-03-26T08:54:38;100231.34;;;9.46;100.00
66273;BME280;58450;52.150;4.466;2023-03-26T08:58:01;100239.13;;;9.35;100.00
66273;BME280;58450;52.150;4.466;2023-03-26T09:01:03;100233.31;;;9.59;100.00
66273;BME280;58450;52.150;4.466;2023-03-26T09:07:49;100241.06;;;9.48;100.00
66273;BME280;58450;52.150;4.466;2023-03-26T09:10:51;100244.25;;;9.58;100.00
66273;BME280;58450;52.150;4.466;2023-03-26T09:13:59;100246.44;;;9.76;100.00
66273;BME280;58450;52.150;4.466;2023-03-26T09:17:04;100246.25;;;9.78;100.00
66273;BME280;58450;52.150;4.466;2023-03-26T09:20:07;100250.22;;;9.88;100.00
66273;BME280;58450;52.150;4.466;2023-03-26T09:23:08;100254.16;;;9.86;100.00
66273;BME280;58450;52.150;4.466;2023-03-26T09:26:03;100249.13;;;9.76;100.00
66273;BME280;58450;52.150;4.466;2023-03-26T09:29:16;100252.41;;;9.71;100.00
66273;BME280;58450;52.150;4.466;2023-03-26T09:35:54;100253.72;;;9.82;100.00
66273;BME280;58450;52.150;4.466;2023-03-26T09:38:55;100257.25;;;9.83;100.00
66273;BME280;58450;52.150;4.466;2023-03-26T09:41:34;100262.72;;;9.68;100.00
66273;BME280;58450;52.150;4.466;2023-03-26T09:50:34;100268.28;;;9.66;100.00
66273;BME280;58450;52.150;4.466;2023-03-26T09:53:22;100273.03;;;9.64;100.00
66273;BME280;58450;52.150;4.466;2023-03-26T09:56:15;100276.06;;;9.83;100.00
66273;BME280;58450;52.150;4.466;2023-03-26T09:59:10;100279.00;;;9.95;100.00
66273;BME280;58450;52.150;4.466;2023-03-26T10:01:57;100276.53;;;9.93;100.00
66273;BME280;58450;52.150;4.466;2023-03-26T10:04:58;100274.47;;;9.95;100.00
66273;BME280;58450;52.150;4.466;2023-03-26T10:07:50;100285.03;;;9.97;100.00
66273;BME280;58450;52.150;4.466;2023-03-26T10:10:32;100282.69;;;9.87;100.00
66273;BME280;58450;52.150;4.466;2023-03-26T10:13:18;100297.50;;;9.76;100.00
66273;BME280;58450;52.150;4.466;2023-03-26T10:16:04;100302.03;;;9.75;100.00
66273;BME280;58450;52.150;4.466;2023-03-26T10:18:54;100304.13;;;9.80;100.00
66273;BME280;58450;52.150;4.466;2023-03-26T10:21:39;100301.59;;;9.72;100.00
66273;BME280;58450;52.150;4.466;2023-03-26T10:24:32;100301.41;;;9.73;100.00
66273;BME280;58450;52.150;4.466;2023-03-26T10:27:29;100300.81;;;9.78;100.00
66273;BME280;58450;52.150;4.466;2023-03-26T10:30:24;100306.69;;;9.88;100.00
66273;BME280;58450;52.150;4.466;2023-03-26T10:33:13;100306.09;;;9.93;100.00
66273;BME280;58450;52.150;4.466;2023-03-26T10:36:01;100310.50;;;9.72;100.00
66273;BME280;58450;52.150;4.466;2023-03-26T10:38:56;100317.09;;;9.70;100.00
66273;BME280;58450;52.150;4.466;2023-03-26T10:41:43;100318.66;;;9.86;100.00
66273;BME280;58450;52.150;4.466;2023-03-26T10:44:44;100329.31;;;10.01;100.00
66273;BME280;58450;52.150;4.466;2023-03-26T10:47:34;100319.63;;;10.07;100.00
66273;BME280;58450;52.150;4.466;2023-03-26T10:50:44;100332.88;;;10.08;100.00
66273;BME280;58450;52.150;4.466;2023-03-26T10:53:27;100340.13;;;10.08;100.00
66273;BME280;58450;52.150;4.466;2023-03-26T10:56:06;100337.59;;;9.99;100.00
66273;BME280;58450;52.150;4.466;2023-03-26T10:58:41;100339.50;;;10.05;100.00
66273;BME280;58450;52.150;4.466;2023-03-26T11:01:11;100344.06;;;10.12;100.00
66273;BME280;58450;52.150;4.466;2023-03-26T11:03:49;100338.06;;;10.10;100.00
66273;BME280;58450;52.150;4.466;2023-03-26T11:06:36;100345.81;;;9.98;100.00
66273;BME280;58450;52.150;4.466;2023-03-26T11:09:17;100342.47;;;9.89;100.00
66273;BME280;58450;52.150;4.466;2023-03-26T11:11:55;100347.06;;;9.95;100.00
66273;BME280;58450;52.150;4.466;2023-03-26T11:14:32;100356.81;;;10.03;100.00
66273;BME280;58450;52.150;4.466;2023-03-26T11:17:14;100356.31;;;9.93;100.00
66273;BME280;58450;52.150;4.466;2023-03-26T11:20:00;100358.97;;;9.86;100.00
66273;BME280;58450;52.150;4.466;2023-03-26T11:22:39;100357.84;;;10.02;100.00
66273;BME280;58450;52.150;4.466;2023-03-26T11:28:42;100366.50;;;10.54;100.00
66273;BME280;58450;52.150;4.466;2023-03-26T11:31:40;100374.25;;;10.77;100.00
66273;BME280;58450;52.150;4.466;2023-03-26T11:34:20;100378.81;;;10.77;100.00
66273;BME280;58450;52.150;4.466;2023-03-26T11:36:56;100371.47;;;11.06;100.00
66273;BME280;58450;52.150;4.466;2023-03-26T11:39:39;100375.66;;;11.22;100.00
66273;BME280;58450;52.150;4.466;2023-03-26T11:42:12;100382.53;;;11.31;100.00
66273;BME280;58450;52.150;4.466;2023-03-26T11:44:45;100382.56;;;11.51;100.00
66273;BME280;58450;52.150;4.466;2023-03-26T11:47:22;100382.38;;;11.80;100.00
66273;BME280;58450;52.150;4.466;2023-03-26T11:49:58;100386.53;;;11.96;100.00
66273;BME280;58450;52.150;4.466;2023-03-26T11:52:29;100383.22;;;11.74;100.00
66273;BME280;58450;52.150;4.466;2023-03-26T11:54:56;100391.09;;;11.75;100.00
66273;BME280;58450;52.150;4.466;2023-03-26T11:57:26;100391.75;;;12.04;100.00
66273;BME280;58450;52.150;4.466;2023-03-26T12:00:00;100396.91;;;11.99;100.00
66273;BME280;58450;52.150;4.466;2023-03-26T12:02:41;100403.34;;;11.98;100.00
66273;BME280;58450;52.150;4.466;2023-03-26T12:05:15;100405.44;;;12.09;100.00
66273;BME280;58450;52.150;4.466;2023-03-26T12:07:56;100401.88;;;12.43;100.00
66273;BME280;58450;52.150;4.466;2023-03-26T12:10:28;100408.88;;;12.70;100.00
66273;BME280;58450;52.150;4.466;2023-03-26T12:13:00;100406.53;;;12.81;100.00
66273;BME280;58450;52.150;4.466;2023-03-26T12:15:31;100412.13;;;12.86;100.00
66273;BME280;58450;52.150;4.466;2023-03-26T12:18:17;100407.41;;;12.81;100.00
66273;BME280;58450;52.150;4.466;2023-03-26T12:21:02;100408.78;;;12.97;100.00
66273;BME280;58450;52.150;4.466;2023-03-26T12:23:36;100409.25;;;12.88;100.00
66273;BME280;58450;52.150;4.466;2023-03-26T12:26:16;100414.03;;;13.31;100.00
66273;BME280;58450;52.150;4.466;2023-03-26T12:28:47;100417.22;;;13.21;100.00
66273;BME280;58450;52.150;4.466;2023-03-26T12:31:17;100420.03;;;13.33;100.00
66273;BME280;58450;52.150;4.466;2023-03-26T12:34:02;100429.44;;;13.30;100.00
66273;BME280;58450;52.150;4.466;2023-03-26T12:36:36;100431.56;;;13.15;99.54
66273;BME280;58450;52.150;4.466;2023-03-26T12:39:25;100437.41;;;13.19;100.00
66273;BME280;58450;52.150;4.466;2023-03-26T12:41:57;100447.81;;;13.01;100.00
66273;BME280;58450;52.150;4.466;2023-03-26T12:44:29;100441.94;;;13.18;98.51
66273;BME280;58450;52.150;4.466;2023-03-26T12:47:12;100456.66;;;13.29;95.85
66273;BME280;58450;52.150;4.466;2023-03-26T12:49:44;100442.09;;;13.37;94.50
66273;BME280;58450;52.150;4.466;2023-03-26T12:52:26;100454.47;;;13.58;93.39
66273;BME280;58450;52.150;4.466;2023-03-26T12:55:21;100462.19;;;13.02;91.18
66273;BME280;58450;52.150;4.466;2023-03-26T12:58:13;100456.16;;;12.93;90.89
66273;BME280;58450;52.150;4.466;2023-03-26T13:00:59;100466.13;;;12.99;94.46
66273;BME280;58450;52.150;4.466;2023-03-26T13:03:53;100471.31;;;12.94;95.65
66273;BME280;58450;52.150;4.466;2023-03-26T13:06:38;100474.19;;;13.20;96.03
66273;BME280;58450;52.150;4.466;2023-03-26T13:12:40;100482.44;;;14.34;92.52
66273;BME280;58450;52.150;4.466;2023-03-26T13:15:21;100475.00;;;14.04;87.49
66273;BME280;58450;52.150;4.466;2023-03-26T13:18:03;100481.13;;;14.44;86.35
66273;BME280;58450;52.150;4.466;2023-03-26T13:20:49;100487.69;;;14.55;81.20
66273;BME280;58450;52.150;4.466;2023-03-26T13:23:34;100488.59;;;14.48;76.32
66273;BME280;58450;52.150;4.466;2023-03-26T13:26:19;100482.66;;;15.02;72.80
66273;BME280;58450;52.150;4.466;2023-03-26T13:29:04;100490.59;;;15.84;70.10
66273;BME280;58450;52.150;4.466;2023-03-26T13:31:44;100482.81;;;16.42;64.27
66273;BME280;58450;52.150;4.466;2023-03-26T13:34:26;100491.69;;;16.84;66.04
66273;BME280;58450;52.150;4.466;2023-03-26T13:37:07;100486.28;;;17.37;63.62
66273;BME280;58450;52.150;4.466;2023-03-26T13:39:53;100497.97;;;17.67;60.43
66273;BME280;58450;52.150;4.466;2023-03-26T13:42:42;100493.13;;;16.63;61.00
66273;BME280;58450;52.150;4.466;2023-03-26T13:45:32;100497.25;;;15.88;63.27
66273;BME280;58450;52.150;4.466;2023-03-26T13:48:12;100506.94;;;14.65;62.91
66273;BME280;58450;52.150;4.466;2023-03-26T13:50:52;100510.34;;;14.35;67.95
66273;BME280;58450;52.150;4.466;2023-03-26T13:53:31;100512.63;;;14.06;71.76
66273;BME280;58450;52.150;4.466;2023-03-26T13:56:05;100514.94;;;13.70;73.02
66273;BME280;58450;52.150;4.466;2023-03-26T13:58:41;100509.44;;;13.45;74.92
66273;BME280;58450;52.150;4.466;2023-03-26T14:01:16;100521.38;;;13.04;76.92
66273;BME280;58450;52.150;4.466;2023-03-26T14:03:53;100524.31;;;12.82;83.01
66273;BME280;58450;52.150;4.466;2023-03-26T14:06:40;100522.69;;;12.47;83.44